Time;durP1;ratioP1;P1;durP2;ratioP2;P2;SDS_P1;SDS_P2;PMS_P1;PMS_P2;Temp;Humidity;BMP_temperature;BMP_pressure;BME280_temperature;BME280_humidity;BME280_pressure;Samples;Min_cycle;Max_cycle;Signal;HPM_P1;HPM_P2
2022/09/01 00:01:20;;;;;;;9.95;8.45;;;15.20;99.90;;;;;;5054202;28;20033;-69
2022/09/01 00:03:51;;;;;;;11.30;7.72;;;15.20;99.90;;;;;;5054214;28;20033;-70
2022/09/01 00:06:21;;;;;;;10.98;9.30;;;15.20;99.90;;;;;;5054072;28;20028;-70
2022/09/01 00:08:52;;;;;;;9.48;8.20;;;15.20;99.90;;;;;;5052780;28;20094;-70
2022/09/01 00:11:18;;;;;;;8.90;8.00;;;15.10;99.90;;;;;;5052495;28;20022;-70
2022/09/01 00:13:44;;;;;;;10.52;9.30;;;15.10;99.90;;;;;;5053729;28;20036;-70
2022/09/01 00:16:13;;;;;;;13.43;10.07;;;15.10;99.90;;;;;;5052453;28;20020;-70
2022/09/01 00:18:41;;;;;;;12.57;8.65;;;15.10;99.90;;;;;;5053733;28;20139;-70
2022/09/01 00:21:08;;;;;;;10.75;9.02;;;15.10;99.90;;;;;;5052389;28;20119;-70
2022/09/01 00:23:33;;;;;;;11.20;9.52;;;15.00;99.90;;;;;;5053880;28;20055;-70
2022/09/01 00:25:59;;;;;;;13.70;8.55;;;15.00;99.90;;;;;;5053890;28;20017;-70
2022/09/01 00:28:25;;;;;;;11.65;9.00;;;15.00;99.90;;;;;;5053266;28;20439;-69
2022/09/01 00:30:52;;;;;;;10.40;9.35;;;15.00;99.90;;;;;;5053562;28;20017;-70
2022/09/01 00:33:18;;;;;;;11.10;9.10;;;14.90;99.90;;;;;;5052263;28;20461;-69
2022/09/01 00:35:43;;;;;;;12.80;9.90;;;14.90;99.90;;;;;;5053497;28;20035;-69
2022/09/01 00:38:09;;;;;;;11.32;8.90;;;14.90;99.90;;;;;;5052200;28;20063;-69
2022/09/01 00:40:35;;;;;;;9.93;8.93;;;14.80;99.90;;;;;;5052249;28;20025;-69
2022/09/01 00:43:14;;;;;;;10.32;9.23;;;14.80;99.90;;;;;;5053482;28;20025;-70
2022/09/01 00:45:41;;;;;;;9.75;8.75;;;14.80;99.90;;;;;;5053784;28;20040;-69
2022/09/01 00:48:08;;;;;;;9.90;8.63;;;14.80;99.90;;;;;;5054660;28;20037;-69
2022/09/01 00:50:35;;;;;;;10.55;9.55;;;14.80;99.90;;;;;;5056069;28;20037;-69
2022/09/01 00:53:01;;;;;;;9.93;8.90;;;14.70;99.90;;;;;;5057476;28;20067;-69
2022/09/01 00:55:31;;;;;;;11.27;9.30;;;14.70;99.90;;;;;;5056642;28;20071;-70
2022/09/01 00:58:00;;;;;;;11.27;8.93;;;14.70;99.90;;;;;;5056885;28;20060;-70
2022/09/01 01:00:29;;;;;;;12.60;9.02;;;14.60;99.90;;;;;;5058276;28;20033;-69
2022/09/01 01:02:56;;;;;;;12.20;9.52;;;14.60;99.90;;;;;;5056003;28;20052;-70
2022/09/01 01:05:26;;;;;;;10.38;9.27;;;14.60;99.90;;;;;;5056221;28;20116;-69
2022/09/01 01:07:54;;;;;;;12.35;10.88;;;14.60;99.90;;;;;;5056929;28;20119;-69
2022/09/01 01:10:21;;;;;;;10.02;9.13;;;14.60;99.90;;;;;;5056973;28;20048;-69
2022/09/01 01:12:50;;;;;;;12.68;9.90;;;14.50;99.90;;;;;;5056690;28;20512;-69
2022/09/01 01:15:17;;;;;;;10.70;9.57;;;14.50;99.90;;;;;;5056950;28;20025;-69
2022/09/01 01:17:43;;;;;;;12.65;10.48;;;14.50;99.90;;;;;;5055794;28;20060;-69
2022/09/01 01:23:12;;;;;;;10.98;9.65;;;14.50;99.90;;;;;;5056864;28;20028;-69
2022/09/01 01:25:40;;;;;;;12.57;9.82;;;14.50;99.90;;;;;;5056913;28;20036;-69
2022/09/01 01:28:25;;;;;;;11.13;10.02;;;14.40;99.90;;;;;;5056636;28;20384;-69
2022/09/01 01:30:54;;;;;;;14.25;9.32;;;14.40;99.90;;;;;;5055383;28;20025;-69
2022/09/01 01:33:27;;;;;;;13.68;9.80;;;14.30;99.90;;;;;;5056829;28;20028;-69
2022/09/01 01:35:56;;;;;;;10.23;9.23;;;14.30;99.90;;;;;;5056845;28;20032;-69
2022/09/01 01:38:23;;;;;;;14.27;10.15;;;14.30;99.90;;;;;;5056969;28;20086;-69
2022/09/01 01:40:50;;;;;;;15.00;10.32;;;14.20;99.90;;;;;;5055217;28;20424;-69
2022/09/01 01:43:18;;;;;;;15.43;10.65;;;14.20;99.90;;;;;;5056418;28;20017;-69
2022/09/01 01:45:46;;;;;;;12.17;10.87;;;14.20;99.90;;;;;;5056404;28;20029;-69
2022/09/01 01:48:12;;;;;;;11.95;10.75;;;14.10;99.90;;;;;;5056242;28;20033;-69
2022/09/01 01:50:38;;;;;;;14.27;11.77;;;14.20;99.90;;;;;;5056293;28;20519;-69
2022/09/01 01:53:07;;;;;;;12.68;10.70;;;14.20;99.90;;;;;;5056551;28;20029;-69
2022/09/01 01:55:32;;;;;;;12.77;11.40;;;14.10;99.90;;;;;;5056192;28;20108;-69
2022/09/01 01:57:59;;;;;;;12.07;10.27;;;14.20;99.90;;;;;;5054841;28;20503;-69
2022/09/01 02:00:29;;;;;;;12.27;9.73;;;14.20;99.90;;;;;;5054013;28;20036;-69
2022/09/01 02:02:55;;;;;;;14.70;10.43;;;14.10;99.90;;;;;;5054437;28;20492;-69
2022/09/01 02:05:27;;;;;;;11.48;10.23;;;14.20;99.90;;;;;;5055968;28;20025;-69
2022/09/01 02:08:00;;;;;;;15.43;10.55;;;14.20;99.90;;;;;;5055944;28;20231;-69
2022/09/01 02:10:30;;;;;;;11.38;10.27;;;14.20;99.90;;;;;;5054690;28;20032;-69
2022/09/01 02:13:02;;;;;;;13.10;10.18;;;14.20;99.90;;;;;;5054520;28;20410;-69
2022/09/01 02:15:28;;;;;;;12.20;9.98;;;14.20;99.90;;;;;;5055332;28;20116;-69
2022/09/01 02:17:58;;;;;;;12.18;9.95;;;14.20;99.90;;;;;;5054424;28;20029;-69
2022/09/01 02:20:28;;;;;;;12.70;10.20;;;14.20;99.90;;;;;;5055995;28;20029;-69
2022/09/01 02:22:55;;;;;;;14.05;10.40;;;14.20;99.90;;;;;;5054350;28;20485;-69
2022/09/01 02:25:22;;;;;;;13.55;10.02;;;14.20;99.90;;;;;;5054301;28;20063;-69
2022/09/01 02:27:51;;;;;;;10.55;9.45;;;14.20;99.90;;;;;;5054322;28;20025;-69
2022/09/01 02:30:17;;;;;;;12.00;9.45;;;14.30;99.90;;;;;;5055493;28;20021;-69
2022/09/01 02:32:42;;;;;;;10.32;9.30;;;14.30;99.90;;;;;;5055458;28;20032;-69
2022/09/01 02:35:08;;;;;;;12.40;9.73;;;14.30;99.90;;;;;;5055725;28;20033;-69
2022/09/01 02:37:38;;;;;;;12.07;10.00;;;14.30;99.90;;;;;;5055521;28;20029;-69
2022/09/01 02:40:05;;;;;;;10.35;9.25;;;14.30;99.90;;;;;;5054289;28;20032;-69
2022/09/01 02:42:31;;;;;;;12.65;9.88;;;14.30;99.90;;;;;;5054043;28;20028;-69
2022/09/01 02:44:57;;;;;;;13.10;9.70;;;14.30;99.90;;;;;;5053687;28;20029;-69
2022/09/01 02:47:26;;;;;;;9.98;9.07;;;14.30;99.90;;;;;;5055154;28;20017;-69
2022/09/01 02:49:52;;;;;;;;;;;14.30;99.90;;;;;;5054181;28;20060;-70
2022/09/01 02:52:19;;;;;;;15.48;9.85;;;14.30;99.90;;;;;;5055054;28;20365;-69
2022/09/01 02:54:47;;;;;;;11.68;8.98;;;14.20;99.90;;;;;;5054227;28;20029;-69
2022/09/01 02:57:14;;;;;;;12.90;9.70;;;14.20;99.90;;;;;;5055083;28;20115;-69
2022/09/01 02:59:40;;;;;;;9.85;8.85;;;14.20;99.90;;;;;;5055246;28;20141;-69
2022/09/01 03:02:07;;;;;;;10.30;8.38;;;14.20;99.90;;;;;;5054892;28;20076;-69
2022/09/01 03:04:34;;;;;;;11.13;9.38;;;14.20;99.90;;;;;;5054631;28;20025;-69
2022/09/01 03:07:04;;;;;;;11.75;8.70;;;14.20;99.90;;;;;;5054544;28;20053;-69
2022/09/01 03:09:31;;;;;;;10.95;9.07;;;14.20;99.90;;;;;;5055152;28;20100;-69
2022/09/01 03:11:57;;;;;;;8.50;7.70;;;14.20;99.90;;;;;;5052514;28;20028;-69
2022/09/01 03:14:24;;;;;;;9.75;8.68;;;14.20;99.90;;;;;;5054663;28;20112;-69
2022/09/01 03:16:50;;;;;;;9.35;8.43;;;14.20;99.90;;;;;;5053290;28;20028;-69
2022/09/01 03:19:17;;;;;;;13.40;7.85;;;14.30;99.90;;;;;;5054344;28;20108;-69
2022/09/01 03:21:44;;;;;;;12.93;7.40;;;14.30;99.90;;;;;;5054514;28;20029;-69
2022/09/01 03:24:13;;;;;;;9.55;8.38;;;14.40;99.90;;;;;;5054601;28;20373;-69
2022/09/01 03:26:39;;;;;;;;;;;14.30;99.90;;;;;;5054811;28;20400;-69
2022/09/01 03:29:05;;;;;;;7.93;7.22;;;14.30;99.90;;;;;;5053027;28;20352;-70
2022/09/01 03:31:31;;;;;;;8.88;7.97;;;14.30;99.90;;;;;;5054632;28;20025;-69
2022/09/01 03:33:58;;;;;;;9.95;8.07;;;14.40;99.90;;;;;;5054278;28;20025;-69
2022/09/01 03:36:26;;;;;;;12.95;7.40;;;14.40;99.90;;;;;;5054264;28;20507;-69
2022/09/01 03:38:52;;;;;;;11.65;7.70;;;14.40;99.90;;;;;;5054186;28;20028;-70
2022/09/01 03:41:21;;;;;;;8.48;7.40;;;14.50;99.90;;;;;;5054300;28;20021;-69
2022/09/01 03:43:47;;;;;;;8.82;7.85;;;14.50;99.90;;;;;;5052839;28;20074;-69
2022/09/01 03:46:20;;;;;;;8.88;7.15;;;14.50;99.90;;;;;;5054108;28;20112;-69
2022/09/01 03:48:51;;;;;;;9.90;7.25;;;14.40;99.90;;;;;;5052730;28;20033;-69
2022/09/01 03:51:19;;;;;;;8.68;7.47;;;14.40;99.90;;;;;;5054156;28;20021;-69
2022/09/01 03:53:46;;;;;;;7.93;7.13;;;14.40;99.90;;;;;;5053965;28;20025;-69
2022/09/01 03:56:12;;;;;;;9.93;6.95;;;14.40;99.90;;;;;;5054058;28;20025;-69
2022/09/01 03:58:38;;;;;;;10.15;7.50;;;14.40;99.90;;;;;;5052669;28;20420;-69
2022/09/01 04:01:04;;;;;;;8.93;6.68;;;14.40;99.90;;;;;;5053995;28;20035;-69
2022/09/01 04:03:33;;;;;;;8.75;7.60;;;14.40;99.90;;;;;;5053493;28;20055;-69
2022/09/01 04:06:00;;;;;;;10.65;7.00;;;14.40;99.90;;;;;;5052656;28;20381;-69
2022/09/01 04:08:29;;;;;;;10.10;7.40;;;14.40;99.90;;;;;;5053643;28;20043;-69
2022/09/01 04:10:58;;;;;;;10.40;6.85;;;14.40;99.90;;;;;;5053751;28;20032;-69
2022/09/01 04:13:26;;;;;;;8.13;5.95;;;14.40;99.90;;;;;;5052412;28;20025;-69
2022/09/01 04:15:52;;;;;;;7.68;6.20;;;14.40;99.90;;;;;;5053830;28;20029;-69
2022/09/01 04:18:22;;;;;;;7.18;6.20;;;14.40;99.90;;;;;;5052611;28;20187;-69
2022/09/01 04:20:58;;;;;;;6.88;6.10;;;14.40;99.90;;;;;;5053872;28;20080;-69
2022/09/01 04:23:32;;;;;;;6.80;6.13;;;14.40;99.90;;;;;;5052098;28;20373;-69
2022/09/01 04:26:13;;;;;;;11.05;5.95;;;14.50;99.90;;;;;;5053629;28;20021;-69
2022/09/01 04:28:57;;;;;;;9.65;5.85;;;14.50;99.90;;;;;;5053766;28;20114;-69
2022/09/01 04:31:23;;;;;;;9.48;6.28;;;14.50;99.90;;;;;;5053987;28;20025;-69
2022/09/01 04:33:51;;;;;;;8.77;5.75;;;14.50;99.90;;;;;;5053553;28;20028;-68
2022/09/01 04:36:32;;;;;;;5.95;5.32;;;14.50;99.90;;;;;;5052232;28;20052;-68
2022/09/01 04:39:00;;;;;;;7.45;4.78;;;14.50;99.90;;;;;;5053568;28;20035;-68
2022/09/01 04:41:30;;;;;;;6.63;4.93;;;14.50;99.90;;;;;;5052094;28;20031;-68
2022/09/01 04:43:57;;;;;;;5.45;4.88;;;14.60;99.90;;;;;;5053576;28;20353;-67
2022/09/01 04:46:28;;;;;;;9.30;4.70;;;14.60;99.90;;;;;;5053320;28;20084;-67
2022/09/01 04:48:54;;;;;;;4.80;4.40;;;14.60;99.90;;;;;;5053291;28;20041;-67
2022/09/01 04:51:21;;;;;;;6.80;4.10;;;14.70;99.90;;;;;;5052113;28;20029;-67
2022/09/01 04:53:49;;;;;;;7.28;4.50;;;14.70;99.90;;;;;;5052092;28;20025;-67
2022/09/01 04:56:21;;;;;;;5.55;4.07;;;14.70;99.90;;;;;;5053051;28;20053;-67
2022/09/01 04:58:52;;;;;;;5.40;4.07;;;14.80;99.90;;;;;;5051943;28;20076;-68
2022/09/01 05:01:20;;;;;;;6.05;4.60;;;15.00;99.90;;;;;;5052029;28;20025;-67
2022/09/01 05:03:55;;;;;;;6.47;4.30;;;14.80;99.90;;;;;;5051899;28;20075;-67
2022/09/01 05:06:22;;;;;;;4.68;3.30;;;14.80;99.90;;;;;;5053486;28;20500;-67
2022/09/01 05:08:48;;;;;;;6.32;4.20;;;14.80;99.90;;;;;;5052811;28;20029;-68
2022/09/01 05:11:16;;;;;;;4.47;3.40;;;14.90;99.90;;;;;;5051891;28;20472;-67
2022/09/01 05:13:47;;;;;;;4.70;4.00;;;14.90;99.90;;;;;;5053111;28;20071;-66
2022/09/01 05:16:18;;;;;;;4.43;3.78;;;14.90;99.90;;;;;;5053022;28;20112;-65
2022/09/01 05:18:48;;;;;;;8.02;3.85;;;15.00;99.90;;;;;;5053321;28;20465;-65
2022/09/01 05:21:17;;;;;;;9.73;3.92;;;15.10;99.90;;;;;;5053370;28;20039;-65
2022/09/01 05:23:45;;;;;;;5.87;3.33;;;15.10;99.90;;;;;;5053566;28;20028;-66
2022/09/01 05:26:16;;;;;;;4.20;3.58;;;15.10;99.90;;;;;;5053096;28;20256;-65
2022/09/01 05:29:09;;;;;;;3.20;2.90;;;15.20;99.90;;;;;;5052960;28;20036;-66
2022/09/01 05:31:36;;;;;;;4.32;3.05;;;15.20;99.90;;;;;;5052962;28;20025;-66
2022/09/01 05:34:03;;;;;;;5.03;3.42;;;15.30;99.90;;;;;;5052374;28;20119;-66
2022/09/01 05:36:33;;;;;;;6.32;2.90;;;15.30;99.90;;;;;;5056553;28;20036;-66
2022/09/01 05:39:00;;;;;;;7.03;3.38;;;15.40;99.90;;;;;;5056447;28;20037;-66
2022/09/01 05:41:27;;;;;;;4.68;2.80;;;15.40;99.90;;;;;;5055362;28;20033;-66
2022/09/01 05:43:53;;;;;;;3.70;3.08;;;15.50;99.90;;;;;;5056336;28;20025;-61
2022/09/01 05:46:26;;;;;;;4.30;3.15;;;15.60;99.90;;;;;;5056368;28;20154;-60
2022/09/01 05:48:53;;;;;;;5.97;2.78;;;15.70;99.90;;;;;;5056306;28;20048;-60
2022/09/01 05:51:25;;;;;;;4.07;2.50;;;16.00;99.90;;;;;;5055349;28;20029;-60
2022/09/01 05:53:55;;;;;;;2.55;2.33;;;16.50;99.90;;;;;;5056419;28;20040;-61
2022/09/01 05:56:21;;;;;;;3.65;1.98;;;17.00;99.90;;;;;;5057504;28;20025;-61
2022/09/01 05:58:47;;;;;;;3.65;1.90;;;17.50;99.90;;;;;;5057437;28;20037;-61
2022/09/01 06:01:23;;;;;;;7.00;3.45;;;18.00;99.90;;;;;;5057159;28;20027;-61
2022/09/01 06:03:53;;;;;;;4.30;2.08;;;18.40;99.90;;;;;;5056352;28;20052;-61
2022/09/01 06:06:26;;;;;;;4.47;1.50;;;18.70;99.90;;;;;;5056267;28;20107;-61
2022/09/01 06:08:57;;;;;;;6.53;1.70;;;18.90;99.90;;;;;;5055930;28;20094;-64
2022/09/01 06:11:25;;;;;;;3.42;1.63;;;19.00;99.90;;;;;;5055943;28;20411;-71
2022/09/01 06:13:54;;;;;;;1.85;1.60;;;19.20;99.90;;;;;;5055953;28;20021;-67
2022/09/01 06:16:22;;;;;;;5.68;1.75;;;19.30;99.90;;;;;;5054573;28;20123;-67
2022/09/01 06:18:49;;;;;;;2.35;1.90;;;19.60;99.90;;;;;;5055720;28;20025;-68
2022/09/01 06:21:15;;;;;;;3.42;1.92;;;19.80;99.90;;;;;;5055810;28;20025;-63
2022/09/01 06:23:43;;;;;;;2.88;1.20;;;20.10;99.90;;;;;;5055550;28;20493;-60
2022/09/01 06:26:22;;;;;;;3.60;1.20;;;20.50;99.90;;;;;;5055452;28;20021;-62
2022/09/01 06:28:49;;;;;;;2.08;1.10;;;20.30;99.90;;;;;;5055295;28;20061;-60
2022/09/01 06:31:16;;;;;;;4.43;1.63;;;20.20;99.90;;;;;;5055592;28;20035;-61
2022/09/01 06:33:42;;;;;;;2.95;1.25;;;19.70;99.90;;;;;;5055506;28;20032;-63
2022/09/01 06:36:08;;;;;;;6.28;1.70;;;19.10;99.90;;;;;;5055038;28;20021;-63
2022/09/01 06:38:35;;;;;;;3.03;1.20;;;18.60;99.90;;;;;;5055628;28;20044;-61
2022/09/01 06:41:11;;;;;;;2.10;1.30;;;18.20;99.90;;;;;;5054988;28;20033;-63
2022/09/01 06:43:40;;;;;;;1.70;1.17;;;18.00;99.90;;;;;;5055199;28;20500;-66
2022/09/01 06:46:08;;;;;;;5.28;1.40;;;17.70;99.90;;;;;;5054888;28;20029;-63
2022/09/01 06:48:38;;;;;;;2.15;1.35;;;17.60;99.90;;;;;;5055014;28;20049;-61
2022/09/01 06:51:06;;;;;;;1.55;1.38;;;17.40;99.90;;;;;;5055207;28;20424;-61
2022/09/01 06:53:33;;;;;;;3.80;1.83;;;17.40;99.90;;;;;;5055105;28;20052;-61
2022/09/01 06:55:59;;;;;;;1.08;1.00;;;17.70;99.90;;;;;;5054989;28;20086;-62
2022/09/01 06:58:25;;;;;;;3.22;1.13;;;18.00;99.90;;;;;;5054648;28;20071;-62
2022/09/01 07:00:51;;;;;;;2.78;1.20;;;18.50;99.90;;;;;;5054940;28;20043;-61
2022/09/01 07:03:17;;;;;;;2.92;1.48;;;18.90;99.90;;;;;;5053152;28;20094;-60
2022/09/01 07:05:46;;;;;;;5.78;1.20;;;19.40;99.90;;;;;;5054858;28;20103;-61
2022/09/01 07:08:20;;;;;;;1.38;1.25;;;19.80;99.90;;;;;;5054458;28;20028;-62
2022/09/01 07:10:48;;;;;;;1.50;1.00;;;19.80;99.90;;;;;;5054831;28;20029;-61
2022/09/01 07:13:18;;;;;;;1.90;1.27;;;19.70;99.90;;;;;;5054971;28;20354;-60
2022/09/01 07:15:47;;;;;;;7.07;1.20;;;19.60;99.90;;;;;;5055148;28;20040;-62
2022/09/01 07:18:13;;;;;;;6.75;2.13;;;19.50;99.90;;;;;;5054526;28;20040;-62
2022/09/01 07:20:40;;;;;;;1.17;0.95;;;19.60;99.90;;;;;;5054518;28;20029;-59
2022/09/01 07:23:07;;;;;;;2.35;1.10;;;19.80;99.90;;;;;;5054157;28;20491;-62
2022/09/01 07:25:37;;;;;;;3.63;0.98;;;20.20;99.90;;;;;;5054440;28;20029;-62
2022/09/01 07:28:04;;;;;;;1.77;1.00;;;20.40;99.90;;;;;;5054494;28;20029;-62
2022/09/01 07:30:32;;;;;;;3.05;0.95;;;20.40;99.90;;;;;;5054307;28;20032;-61
2022/09/01 07:32:58;;;;;;;3.20;0.70;;;20.70;99.90;;;;;;5054361;28;20025;-63
2022/09/01 07:35:24;;;;;;;1.60;0.90;;;21.00;99.90;;;;;;5054272;28;20029;-60
2022/09/01 07:37:50;;;;;;;5.10;1.00;;;21.30;99.90;;;;;;5054608;28;20131;-67
2022/09/01 07:40:20;;;;;;;3.42;0.80;;;21.40;99.60;;;;;;5052934;28;20075;-67
2022/09/01 07:42:46;;;;;;;1.52;0.65;;;21.60;99.80;;;;;;5054274;28;20032;-68
2022/09/01 07:45:14;;;;;;;4.28;0.90;;;21.90;98.70;;;;;;5054130;28;20029;-68
2022/09/01 07:47:41;;;;;;;1.75;0.90;;;22.50;97.20;;;;;;5053966;28;20025;-70
2022/09/01 07:50:11;;;;;;;2.00;0.90;;;22.90;96.80;;;;;;5052602;28;20469;-69
2022/09/01 07:52:41;;;;;;;4.35;1.10;;;23.50;93.70;;;;;;5052715;28;20071;-68
2022/09/01 07:55:10;;;;;;;2.55;0.88;;;23.70;92.20;;;;;;5052696;28;20578;-69
2022/09/01 07:57:37;;;;;;;2.42;0.90;;;23.90;90.70;;;;;;5051905;28;20128;-70
2022/09/01 08:00:05;;;;;;;3.00;0.75;;;23.40;89.60;;;;;;5053944;28;20029;-69
2022/09/01 08:02:31;;;;;;;1.48;0.90;;;23.80;90.00;;;;;;5052425;28;20059;-69
2022/09/01 08:04:57;;;;;;;3.25;0.73;;;24.20;88.10;;;;;;5053873;28;20025;-69
2022/09/01 08:07:23;;;;;;;2.15;0.60;;;24.60;84.00;;;;;;5053497;28;20425;-69
2022/09/01 08:09:49;;;;;;;2.88;0.70;;;24.50;83.30;;;;;;5053150;28;20120;-69
2022/09/01 08:12:16;;;;;;;2.65;0.63;;;24.80;80.00;;;;;;5052888;28;20103;-69
2022/09/01 08:14:41;;;;;;;4.47;0.80;;;25.10;77.50;;;;;;5053916;28;20423;-69
2022/09/01 08:17:07;;;;;;;4.45;0.60;;;24.90;73.40;;;;;;5053702;28;20033;-69
2022/09/01 08:19:33;;;;;;;2.85;1.38;;;24.30;72.80;;;;;;5052440;28;20035;-69
2022/09/01 08:22:00;;;;;;;3.10;0.85;;;24.40;75.70;;;;;;5052320;28;20036;-70
2022/09/01 08:24:25;;;;;;;1.33;0.73;;;24.40;75.40;;;;;;5052366;28;20025;-69
2022/09/01 08:26:51;;;;;;;0.98;0.60;;;25.00;74.50;;;;;;5053244;28;20028;-69
2022/09/01 08:29:17;;;;;;;1.27;0.47;;;25.30;70.90;;;;;;5053453;28;20035;-71
2022/09/01 08:31:42;;;;;;;2.95;0.90;;;25.80;70.40;;;;;;5052216;28;20381;-71
2022/09/01 08:34:11;;;;;;;2.25;0.60;;;25.90;67.50;;;;;;5053639;28;20029;-70
2022/09/01 08:36:37;;;;;;;;;;;25.80;65.90;;;;;;5052330;28;20029;-71
2022/09/01 08:39:02;;;;;;;2.72;0.70;;;25.10;66.30;;;;;;5053937;28;19912;-71
2022/09/01 08:42:22;;;;;;;1.20;0.45;;;24.70;67.20;;;;;;5052199;28;20074;-71
2022/09/01 08:45:10;;;;;;;1.80;0.85;;;25.20;68.10;;;;;;5031420;28;20060;-71
2022/09/01 08:47:37;;;;;;;2.03;0.80;;;25.50;64.00;;;;;;5053440;28;20032;-71
2022/09/01 08:50:04;;;;;;;1.25;0.70;;;25.70;61.60;;;;;;5052396;28;20409;-71
2022/09/01 08:52:36;;;;;;;2.95;0.77;;;25.70;62.70;;;;;;5053387;28;20078;-71
2022/09/01 08:55:20;;;;;;;2.42;0.50;;;26.30;61.40;;;;;;5053580;28;20051;-71
2022/09/01 08:57:50;;;;;;;0.95;0.50;;;26.50;60.50;;;;;;5053422;28;20029;-72
2022/09/01 09:00:19;;;;;;;1.55;0.80;;;27.00;60.80;;;;;;5053159;28;20039;-72
2022/09/01 09:02:53;;;;;;;;;;;26.40;57.90;;;;;;5053799;28;20049;-72
2022/09/01 09:05:28;;;;;;;1.38;0.70;;;26.40;57.20;;;;;;5051930;28;20367;-72
2022/09/01 09:08:15;;;;;;;0.70;0.60;;;26.20;56.40;;;;;;5052491;28;20033;-71
2022/09/01 09:11:00;;;;;;;2.85;0.55;;;25.80;58.50;;;;;;5057748;28;20021;-71
2022/09/01 09:13:45;;;;;;;1.55;0.90;;;25.80;58.50;;;;;;5055736;28;20483;-72
2022/09/01 09:16:34;;;;;;;2.72;0.63;;;25.50;57.30;;;;;;5056882;28;20048;-71
2022/09/01 09:19:21;;;;;;;1.45;0.57;;;25.80;56.90;;;;;;5056705;28;20140;-70
2022/09/01 09:21:49;;;;;;;1.48;0.70;;;26.70;55.10;;;;;;5055688;28;20059;-71
2022/09/01 09:24:28;;;;;;;1.20;0.50;;;27.20;54.80;;;;;;5055529;28;20025;-71
2022/09/01 09:26:58;;;;;;;1.48;0.57;;;27.50;52.50;;;;;;5055368;28;20529;-71
2022/09/01 09:29:25;;;;;;;0.93;0.50;;;27.40;53.30;;;;;;5056698;28;20040;-71
2022/09/01 09:32:07;;;;;;;3.58;1.08;;;27.20;52.60;;;;;;5056779;28;20017;-71
2022/09/01 09:34:39;;;;;;;0.57;0.43;;;27.00;50.90;;;;;;5056515;28;20052;-70
2022/09/01 09:37:22;;;;;;;2.88;0.65;;;26.20;51.40;;;;;;5055578;28;20029;-70
2022/09/01 09:40:09;;;;;;;1.55;0.50;;;26.60;52.10;;;;;;5055225;28;20029;-71
2022/09/01 09:42:40;;;;;;;2.75;0.70;;;27.70;51.20;;;;;;5056652;28;20017;-71
2022/09/01 09:45:20;;;;;;;2.15;0.68;;;28.50;49.60;;;;;;5055992;28;20040;-71
2022/09/01 09:47:46;;;;;;;1.42;0.38;;;26.90;50.90;;;;;;5056392;28;20025;-70
2022/09/01 09:50:21;;;;;;;0.73;0.43;;;25.50;52.90;;;;;;5054899;28;20076;-68
2022/09/01 09:52:48;;;;;;;1.85;0.63;;;24.40;54.90;;;;;;5054959;28;20048;-69
2022/09/01 09:55:24;;;;;;;2.35;0.47;;;23.90;56.60;;;;;;5056743;28;20044;-69
2022/09/01 09:57:54;;;;;;;1.00;0.60;;;24.10;57.60;;;;;;5056042;28;20029;-68
2022/09/01 10:00:33;;;;;;;2.83;0.60;;;25.10;55.90;;;;;;5055007;28;20065;-68
2022/09/01 10:03:04;;;;;;;;;;;26.50;54.60;;;;;;5056908;28;20098;-70
2022/09/01 10:05:52;;;;;;;1.17;0.65;;;27.40;52.30;;;;;;5054645;28;19905;-69
2022/09/01 10:08:26;;;;;;;3.93;0.70;;;27.10;53.30;;;;;;5054587;28;20469;-71
2022/09/01 10:10:52;;;;;;;1.42;0.70;;;27.00;52.50;;;;;;5054636;28;20363;-68
2022/09/01 10:13:21;;;;;;;2.17;0.70;;;26.70;54.10;;;;;;5056243;28;20040;-68
2022/09/01 10:15:51;;;;;;;;;;;26.60;53.70;;;;;;5056269;28;20441;-68
2022/09/01 10:18:20;;;;;;;1.33;0.77;;;26.60;54.40;;;;;;5055864;28;20318;-67
2022/09/01 10:21:20;;;;;;;4.72;0.85;;;27.00;55.20;;;;;;5055228;28;20025;-69
2022/09/01 10:23:46;;;;;;;6.65;0.65;;;27.80;52.90;;;;;;5051382;28;20036;-67
2022/09/01 10:26:38;;;;;;;3.88;0.60;;;27.90;51.90;;;;;;5055617;28;20036;-67
2022/09/01 10:29:35;;;;;;;0.98;0.50;;;27.20;52.00;;;;;;5055969;28;20487;-67
2022/09/01 10:32:07;;;;;;;1.45;0.60;;;26.70;51.90;;;;;;5052638;28;20427;-67
2022/09/01 10:34:36;;;;;;;1.02;0.60;;;25.70;52.50;;;;;;5054267;28;20021;-67
2022/09/01 10:37:04;;;;;;;2.70;0.73;;;25.10;53.50;;;;;;5054222;28;20032;-67
2022/09/01 10:39:30;;;;;;;3.03;0.77;;;25.70;54.60;;;;;;5056002;28;20021;-67
2022/09/01 10:42:09;;;;;;;1.55;0.60;;;26.60;53.80;;;;;;5055159;28;20028;-67
2022/09/01 10:44:56;;;;;;;3.85;0.70;;;27.10;52.50;;;;;;5054289;28;20029;-67
2022/09/01 10:47:32;;;;;;;1.95;0.55;;;26.70;52.00;;;;;;5054038;28;20029;-67
2022/09/01 10:50:21;;;;;;;2.15;0.63;;;26.90;52.60;;;;;;5053919;28;20029;-68
2022/09/01 10:52:47;;;;;;;2.63;0.60;;;27.20;52.20;;;;;;5054055;28;20488;-68
2022/09/01 10:55:20;;;;;;;5.80;0.75;;;27.50;51.40;;;;;;5053957;28;20056;-68
2022/09/01 10:57:53;;;;;;;4.30;0.82;;;27.30;53.20;;;;;;5055012;28;20096;-68
2022/09/01 11:00:21;;;;;;;2.38;0.55;;;27.30;52.50;;;;;;5054795;28;20032;-67
2022/09/01 11:03:11;;;;;;;3.15;0.70;;;28.60;51.90;;;;;;5054910;28;20139;-68
2022/09/01 11:05:52;;;;;;;0.60;0.47;;;28.60;49.70;;;;;;5053374;28;20032;-68
2022/09/01 11:08:26;;;;;;;4.10;0.60;;;28.10;49.60;;;;;;5055300;28;20037;-68
2022/09/01 11:11:27;;;;;;;2.35;0.80;;;27.70;50.40;;;;;;5059077;28;20053;-68
2022/09/01 11:13:57;;;;;;;1.60;0.60;;;27.90;50.20;;;;;;5056425;28;20040;-68
2022/09/01 11:16:39;;;;;;;4.72;0.82;;;27.50;51.10;;;;;;5058864;28;20052;-67
2022/09/01 11:19:31;;;;;;;1.05;0.50;;;26.70;51.60;;;;;;5058683;28;20025;-67
2022/09/01 11:22:14;;;;;;;0.80;0.30;;;25.90;53.70;;;;;;5055286;28;20066;-67
2022/09/01 11:24:43;;;;;;;0.73;0.50;;;25.70;52.60;;;;;;5053875;28;20057;-67
2022/09/01 11:27:11;;;;;;;3.67;0.57;;;25.90;53.70;;;;;;5054472;28;20075;-68
2022/09/01 11:29:54;;;;;;;;;;;26.60;51.00;;;;;;5054506;28;20028;-70
2022/09/01 11:32:24;;;;;;;1.55;0.30;;;27.70;50.20;;;;;;5053507;28;19911;-71
2022/09/01 11:34:51;;;;;;;2.33;0.40;;;27.90;46.70;;;;;;5052730;28;20026;-70
2022/09/01 11:37:22;;;;;;;1.30;0.43;;;27.10;47.90;;;;;;5054132;28;20029;-68
2022/09/01 11:39:54;;;;;;;1.50;0.40;;;26.30;48.60;;;;;;5054446;28;20082;-68
2022/09/01 11:42:43;;;;;;;8.52;0.60;;;25.80;48.70;;;;;;5054243;28;20060;-68
2022/09/01 11:45:31;;;;;;;0.75;0.40;;;25.60;49.10;;;;;;5053277;28;20488;-69
2022/09/01 11:48:08;;;;;;;3.33;0.63;;;26.90;48.30;;;;;;5054215;28;20017;-70
2022/09/01 11:50:36;;;;;;;1.38;0.88;;;27.90;47.60;;;;;;5054526;28;20464;-68
2022/09/01 11:53:04;;;;;;;3.13;0.40;;;28.00;46.90;;;;;;5054157;28;20032;-69
2022/09/01 11:55:42;;;;;;;0.77;0.53;;;27.20;46.10;;;;;;5052730;28;20488;-68
2022/09/01 11:58:27;;;;;;;2.92;0.55;;;27.50;45.80;;;;;;5052794;28;20085;-70
2022/09/01 12:00:55;;;;;;;3.88;0.30;;;27.50;45.70;;;;;;5054102;28;20025;-69
2022/09/01 12:03:27;;;;;;;3.83;0.40;;;26.80;46.10;;;;;;5053471;28;20056;-69
2022/09/01 12:05:58;;;;;;;2.58;0.40;;;25.60;48.60;;;;;;5052714;28;20060;-68
2022/09/01 12:08:26;;;;;;;2.67;0.32;;;24.90;49.40;;;;;;5053772;28;20068;-71
2022/09/01 12:11:02;;;;;;;0.87;0.40;;;24.20;50.50;;;;;;5053682;28;20579;-68
2022/09/01 12:13:28;;;;;;;22.40;5.97;;;25.30;50.40;;;;;;5052150;28;20508;-68
2022/09/01 12:15:58;;;;;;;9.70;3.97;;;25.90;48.50;;;;;;5053587;28;20025;-68
2022/09/01 12:18:27;;;;;;;8.13;1.83;;;25.80;49.70;;;;;;5052355;28;20029;-69
2022/09/01 12:20:55;;;;;;;;;;;26.80;48.50;;;;;;5054281;28;20025;-68
2022/09/01 12:23:30;;;;;;;4.72;1.08;;;26.50;47.90;;;;;;5053361;28;20380;-68
2022/09/01 12:26:07;;;;;;;1.20;0.57;;;25.80;49.50;;;;;;5053575;28;20029;-68
2022/09/01 12:28:34;;;;;;;1.77;0.70;;;25.10;50.40;;;;;;5053256;28;20526;-68
2022/09/01 12:31:03;;;;;;;2.50;0.88;;;24.10;51.50;;;;;;5052688;28;20029;-69
2022/09/01 12:33:31;;;;;;;3.30;0.40;;;23.70;52.90;;;;;;5053563;28;20116;-68
2022/09/01 12:36:23;;;;;;;4.35;0.68;;;23.90;52.70;;;;;;5053485;28;20100;-69
2022/09/01 12:38:50;;;;;;;1.48;0.40;;;24.50;51.20;;;;;;5049647;28;20106;-69
2022/09/01 12:41:45;;;;;;;2.25;0.88;;;24.30;52.30;;;;;;5053549;28;20064;-68
2022/09/01 12:44:25;;;;;;;4.03;0.35;;;23.80;53.10;;;;;;5054331;28;20467;-68
2022/09/01 12:46:52;;;;;;;3.40;0.50;;;23.40;54.70;;;;;;5057791;28;20031;-70
2022/09/01 12:49:40;;;;;;;5.40;0.43;;;23.10;55.90;;;;;;5057401;28;20063;-70
2022/09/01 12:52:30;;;;;;;1.93;0.50;;;22.80;55.00;;;;;;5057208;28;20090;-70
2022/09/01 12:54:58;;;;;;;1.80;0.40;;;22.70;55.70;;;;;;5057536;28;20262;-70
2022/09/01 12:57:26;;;;;;;1.50;0.80;;;22.90;55.20;;;;;;5057320;28;20029;-68
2022/09/01 13:00:11;;;;;;;1.15;0.40;;;24.70;53.90;;;;;;5057232;28;20025;-68
2022/09/01 13:02:42;;;;;;;3.08;0.85;;;26.00;49.40;;;;;;5056970;28;20049;-68
2022/09/01 13:05:22;;;;;;;2.38;0.43;;;26.00;49.10;;;;;;5055899;28;20033;-68
2022/09/01 13:07:51;;;;;;;3.60;0.25;;;26.60;49.10;;;;;;5057192;28;20029;-68